Time,TemperatureF,DewpointF,PressureIn,WindDirection,WindDirectionDegrees,WindSpeedMPH,WindSpeedGustMPH,Humidity,HourlyPrecipIn,Conditions,Clouds,dailyrainin,SoftwareType,DateUTC
2013-04-29 00:01:00,51.0,49.0,30.21,South,187,12.0,18.0,92,0.00,,,0.01,,2013-04-29 07:01:00,
2013-04-29 00:11:00,51.0,49.0,30.21,South,187,12.0,18.0,92,0.00,,,0.01,,2013-04-29 07:11:00,
2013-04-29 00:21:00,51.0,49.0,30.21,South,175,15.0,19.0,92,0.01,,,0.02,,2013-04-29 07:21:00,
2013-04-29 00:31:00,51.0,49.0,30.20,South,187,13.0,20.0,93,0.01,,,0.02,,2013-04-29 07:31:00,
2013-04-29 00:41:00,51.0,49.0,30.20,South,187,13.0,20.0,93,0.01,,,0.02,,2013-04-29 07:41:00,
2013-04-29 00:52:00,51.0,49.0,30.21,South,187,14.0,19.0,93,0.01,,,0.02,,2013-04-29 07:52:00,
2013-04-29 01:02:00,51.0,49.0,30.21,SSW,195,16.0,22.0,94,0.01,,,0.02,,2013-04-29 08:02:00,
2013-04-29 01:11:00,51.0,49.0,30.21,SSW,195,16.0,22.0,94,0.01,,,0.02,,2013-04-29 08:11:00,
2013-04-29 01:21:00,51.0,49.0,30.21,South,191,15.0,20.0,94,0.01,,,0.03,,2013-04-29 08:21:00,
2013-04-29 01:31:00,50.0,48.0,30.21,SSW,205,13.0,18.0,94,0.02,,,0.04,,2013-04-29 08:31:00,
2013-04-29 01:41:00,50.0,48.0,30.21,SSW,205,13.0,18.0,94,0.02,,,0.04,,2013-04-29 08:41:00,
2013-04-29 01:52:00,50.0,48.0,30.21,SSW,195,14.0,17.0,94,0.03,,,0.05,,2013-04-29 08:52:00,
2013-04-29 02:01:00,50.0,48.0,30.20,SSW,206,9.0,14.0,94,0.03,,,0.05,,2013-04-29 09:01:00,
2013-04-29 02:11:00,50.0,48.0,30.20,SSW,206,9.0,14.0,94,0.03,,,0.05,,2013-04-29 09:11:00,
2013-04-29 02:21:00,50.0,49.0,30.20,SSW,208,9.0,11.0,95,0.02,,,0.05,,2013-04-29 09:21:00,
2013-04-29 02:32:00,51.0,50.0,30.20,SSW,211,9.0,13.0,95,0.01,,,0.05,,2013-04-29 09:32:00,
2013-04-29 02:42:00,51.0,50.0,30.20,SSW,211,9.0,13.0,95,0.01,,,0.05,,2013-04-29 09:42:00,
2013-04-29 02:53:00,51.0,50.0,30.20,SW,219,9.0,11.0,95,0.00,,,0.05,,2013-04-29 09:53:00,
2013-04-29 03:02:00,51.0,50.0,30.19,SW,218,9.0,12.0,95,0.00,,,0.05,,2013-04-29 10:02:00,
2013-04-29 03:12:00,51.0,50.0,30.19,SW,218,9.0,12.0,95,0.00,,,0.05,,2013-04-29 10:12:00,
2013-04-29 03:22:00,51.0,50.0,30.19,SW,227,8.0,10.0,95,0.01,,,0.06,,2013-04-29 10:22:00,
2013-04-29 03:32:00,51.0,50.0,30.19,SW,223,8.0,11.0,95,0.01,,,0.06,,2013-04-29 10:32:00,
2013-04-29 03:42:00,51.0,50.0,30.19,SW,223,8.0,11.0,95,0.01,,,0.06,,2013-04-29 10:42:00,
2013-04-29 03:52:00,51.0,50.0,30.19,SW,232,7.0,10.0,95,0.01,,,0.06,,2013-04-29 10:52:00,
2013-04-29 04:02:00,51.0,50.0,30.19,WSW,246,8.0,10.0,96,0.01,,,0.06,,2013-04-29 11:02:00,
2013-04-29 04:12:00,51.0,50.0,30.19,WSW,246,8.0,10.0,96,0.01,,,0.06,,2013-04-29 11:12:00,
2013-04-29 04:21:00,51.0,50.0,30.19,WSW,253,7.0,11.0,96,0.00,,,0.06,,2013-04-29 11:21:00,
2013-04-29 04:31:00,51.0,50.0,30.18,WSW,258,6.0,8.0,96,0.00,,,0.06,,2013-04-29 11:31:00,
2013-04-29 04:41:00,51.0,50.0,30.18,WSW,258,6.0,8.0,96,0.00,,,0.06,,2013-04-29 11:41:00,
2013-04-29 04:52:00,51.0,50.0,30.18,West,270,7.0,9.0,96,0.00,,,0.06,,2013-04-29 11:52:00,
2013-04-29 05:01:00,50.0,49.0,30.18,NNW,330,6.0,14.0,95,0.01,,,0.07,,2013-04-29 12:01:00,
2013-04-29 05:11:00,50.0,49.0,30.18,NNW,330,6.0,14.0,95,0.01,,,0.07,,2013-04-29 12:11:00,
2013-04-29 05:21:00,50.0,49.0,30.17,NNW,333,9.0,11.0,95,0.01,,,0.07,,2013-04-29 12:21:00,
2013-04-29 05:31:00,50.0,49.0,30.17,NNW,342,11.0,13.0,96,0.01,,,0.07,,2013-04-29 12:31:00,
2013-04-29 05:41:00,50.0,49.0,30.17,NNW,342,11.0,13.0,96,0.01,,,0.07,,2013-04-29 12:41:00,
2013-04-29 05:51:00,50.0,49.0,30.17,North,356,8.0,10.0,96,0.01,,,0.07,,2013-04-29 12:51:00,
2013-04-29 06:01:00,50.0,49.0,30.17,North,358,11.0,13.0,96,0.00,,,0.07,,2013-04-29 13:01:00,
2013-04-29 06:11:00,50.0,49.0,30.17,North,358,11.0,13.0,96,0.00,,,0.07,,2013-04-29 13:11:00,
2013-04-29 06:21:00,49.0,48.0,30.18,North,9,8.0,13.0,96,0.00,,,0.07,,2013-04-29 13:21:00,
2013-04-29 06:31:00,49.0,48.0,30.18,North,352,6.0,9.0,96,0.00,,,0.07,,2013-04-29 13:31:00,
2013-04-29 06:42:00,49.0,48.0,30.18,North,352,6.0,9.0,96,0.00,,,0.07,,2013-04-29 13:42:00,
2013-04-29 06:51:00,49.0,48.0,30.18,North,354,8.0,11.0,96,0.00,,,0.07,,2013-04-29 13:51:00,
2013-04-29 07:01:00,49.0,48.0,30.18,North,354,8.0,11.0,96,0.00,,,0.07,,2013-04-29 14:01:00,
2013-04-29 07:11:00,49.0,48.0,30.18,North,354,8.0,11.0,96,0.00,,,0.07,,2013-04-29 14:11:00,
2013-04-29 07:21:00,49.0,48.0,30.19,North,3,7.0,11.0,96,0.00,,,0.07,,2013-04-29 14:21:00,
2013-04-29 07:32:00,49.0,48.0,30.19,North,6,5.0,8.0,95,0.00,,,0.06,,2013-04-29 14:32:00,
2013-04-29 07:42:00,49.0,48.0,30.19,North,6,5.0,8.0,95,0.00,,,0.06,,2013-04-29 14:42:00,
2013-04-29 07:51:00,49.0,48.0,30.19,North,6,5.0,7.0,95,0.00,,,0.06,,2013-04-29 14:51:00,
2013-04-29 08:01:00,49.0,48.0,30.20,NNE,29,0.0,3.0,95,0.00,,,0.06,,2013-04-29 15:01:00,
2013-04-29 08:12:00,49.0,48.0,30.20,NNE,29,0.0,3.0,95,0.00,,,0.06,,2013-04-29 15:12:00,
2013-04-29 08:21:00,49.0,48.0,30.20,North,6,1.0,5.0,96,0.00,,,0.06,,2013-04-29 15:21:00,
2013-04-29 08:33:00,49.0,48.0,30.21,North,8,12.0,17.0,95,0.00,,,0.06,,2013-04-29 15:33:00,
2013-04-29 08:42:00,49.0,48.0,30.21,North,8,12.0,17.0,95,0.00,,,0.06,,2013-04-29 15:42:00,
2013-04-29 08:52:00,49.0,48.0,30.21,North,5,10.0,13.0,95,0.00,,,0.06,,2013-04-29 15:52:00,
2013-04-29 09:02:00,49.0,48.0,30.22,North,359,10.0,15.0,95,0.00,,,0.06,,2013-04-29 16:02:00,
2013-04-29 09:12:00,49.0,48.0,30.22,North,359,10.0,15.0,95,0.00,,,0.06,,2013-04-29 16:12:00,
2013-04-29 09:23:00,50.0,49.0,30.22,North,4,9.0,13.0,95,0.00,,,0.06,,2013-04-29 16:23:00,
2013-04-29 09:32:00,50.0,48.0,30.22,North,3,10.0,14.0,94,0.00,,,0.06,,2013-04-29 16:32:00,
2013-04-29 09:42:00,50.0,48.0,30.22,North,3,10.0,14.0,94,0.00,,,0.06,,2013-04-29 16:42:00,
2013-04-29 09:52:00,50.0,48.0,30.23,North,8,8.0,13.0,94,0.00,,,0.06,,2013-04-29 16:52:00,
2013-04-29 10:02:00,50.0,48.0,30.23,North,4,12.0,16.0,93,0.00,,,0.06,,2013-04-29 17:02:00,
2013-04-29 10:12:00,50.0,48.0,30.23,North,4,12.0,16.0,93,0.00,,,0.06,,2013-04-29 17:12:00,
2013-04-29 10:22:00,50.0,47.0,30.23,North,350,14.0,17.0,91,0.00,,,0.06,,2013-04-29 17:22:00,
2013-04-29 10:32:00,50.0,47.0,30.24,North,11,13.0,18.0,91,0.00,,,0.06,,2013-04-29 17:32:00,
2013-04-29 10:42:00,50.0,47.0,30.24,North,11,13.0,18.0,91,0.00,,,0.06,,2013-04-29 17:42:00,
2013-04-29 10:52:00,51.0,48.0,30.24,North,352,12.0,15.0,88,0.00,,,0.06,,2013-04-29 17:52:00,
2013-04-29 11:01:00,51.0,47.0,30.24,North,8,10.0,14.0,87,0.00,,,0.06,,2013-04-29 18:01:00,
2013-04-29 11:13:00,51.0,47.0,30.24,North,8,10.0,14.0,87,0.00,,,0.06,,2013-04-29 18:13:00,
2013-04-29 11:22:00,51.0,46.0,30.25,North,357,12.0,14.0,84,0.00,,,0.06,,2013-04-29 18:22:00,
2013-04-29 11:31:00,52.0,47.0,30.25,North,354,11.0,15.0,83,0.00,,,0.06,,2013-04-29 18:31:00,
2013-04-29 11:41:00,52.0,47.0,30.25,North,354,11.0,15.0,83,0.00,,,0.06,,2013-04-29 18:41:00,
2013-04-29 11:51:00,52.0,46.0,30.25,North,357,11.0,15.0,81,0.00,,,0.06,,2013-04-29 18:51:00,
2013-04-29 12:01:00,52.0,46.0,30.25,North,354,10.0,13.0,79,0.00,,,0.06,,2013-04-29 19:01:00,
2013-04-29 12:11:00,52.0,46.0,30.25,North,354,10.0,13.0,79,0.00,,,0.06,,2013-04-29 19:11:00,
2013-04-29 12:21:00,53.0,46.0,30.25,North,356,9.0,13.0,76,0.00,,,0.06,,2013-04-29 19:21:00,
2013-04-29 12:31:00,53.0,46.0,30.25,North,356,9.0,12.0,76,0.00,,,0.06,,2013-04-29 19:31:00,
2013-04-29 12:41:00,53.0,46.0,30.25,North,356,9.0,12.0,76,0.00,,,0.06,,2013-04-29 19:41:00,
2013-04-29 12:51:00,53.0,45.0,30.25,NNW,346,9.0,11.0,75,0.00,,,0.06,,2013-04-29 19:51:00,
2013-04-29 13:02:00,54.0,46.0,30.26,NNW,337,11.0,13.0,74,0.00,,,0.06,,2013-04-29 20:02:00,
2013-04-29 13:11:00,54.0,46.0,30.26,NNW,337,11.0,13.0,74,0.00,,,0.06,,2013-04-29 20:11:00,
2013-04-29 13:21:00,53.0,45.0,30.25,NNW,346,11.0,15.0,75,0.00,,,0.06,,2013-04-29 20:21:00,
2013-04-29 13:32:00,54.0,46.0,30.26,North,352,9.0,12.0,73,0.00,,,0.06,,2013-04-29 20:32:00,
2013-04-29 13:42:00,54.0,46.0,30.26,North,352,9.0,12.0,73,0.00,,,0.06,,2013-04-29 20:42:00,
2013-04-29 13:51:00,53.0,45.0,30.26,NNW,348,12.0,14.0,73,0.00,,,0.06,,2013-04-29 20:51:00,
2013-04-29 14:01:00,54.0,47.0,30.26,North,357,14.0,18.0,76,0.00,,,0.06,,2013-04-29 21:01:00,
2013-04-29 14:11:00,54.0,47.0,30.26,North,357,14.0,18.0,76,0.00,,,0.06,,2013-04-29 21:11:00,
2013-04-29 14:21:00,54.0,47.0,30.26,North,4,15.0,18.0,77,0.00,,,0.06,,2013-04-29 21:21:00,
2013-04-29 14:33:00,54.0,47.0,30.26,North,357,14.0,22.0,76,0.00,,,0.06,,2013-04-29 21:33:00,
2013-04-29 14:42:00,54.0,47.0,30.26,North,357,14.0,22.0,76,0.00,,,0.06,,2013-04-29 21:42:00,
2013-04-29 14:53:00,54.0,47.0,30.26,North,6,15.0,19.0,78,0.00,,,0.06,,2013-04-29 21:53:00,
2013-04-29 15:02:00,53.0,46.0,30.26,North,1,15.0,19.0,78,0.00,,,0.06,,2013-04-29 22:02:00,
2013-04-29 15:13:00,53.0,46.0,30.26,North,1,15.0,19.0,78,0.00,,,0.06,,2013-04-29 22:13:00,
2013-04-29 15:23:00,53.0,46.0,30.26,North,2,17.0,22.0,76,0.00,,,0.06,,2013-04-29 22:23:00,
2013-04-29 15:32:00,53.0,45.0,30.26,North,352,15.0,19.0,75,0.00,,,0.06,,2013-04-29 22:32:00,
2013-04-29 15:42:00,53.0,45.0,30.26,North,352,15.0,19.0,75,0.00,,,0.06,,2013-04-29 22:42:00,
2013-04-29 15:52:00,53.0,45.0,30.26,North,4,17.0,22.0,75,0.00,,,0.06,,2013-04-29 22:52:00,
2013-04-29 16:02:00,53.0,45.0,30.26,North,359,16.0,21.0,75,0.00,,,0.06,,2013-04-29 23:02:00,
2013-04-29 16:11:00,53.0,45.0,30.26,North,359,16.0,21.0,75,0.00,,,0.06,,2013-04-29 23:11:00,
2013-04-29 16:22:00,53.0,44.0,30.26,North,10,15.0,21.0,72,0.00,,,0.06,,2013-04-29 23:22:00,
2013-04-29 16:32:00,53.0,44.0,30.26,North,353,17.0,21.0,71,0.00,,,0.06,,2013-04-29 23:32:00,
2013-04-29 16:42:00,53.0,44.0,30.26,North,353,17.0,21.0,71,0.00,,,0.06,,2013-04-29 23:42:00,
2013-04-29 16:52:00,53.0,44.0,30.26,North,356,16.0,23.0,71,0.00,,,0.06,,2013-04-29 23:52:00,
2013-04-29 17:01:00,53.0,44.0,30.26,North,2,17.0,22.0,71,0.00,,,0.06,,2013-04-30 00:01:00,
2013-04-29 17:11:00,53.0,44.0,30.26,North,2,17.0,22.0,71,0.00,,,0.06,,2013-04-30 00:11:00,
2013-04-29 17:21:00,53.0,44.0,30.26,North,355,16.0,23.0,72,0.00,,,0.06,,2013-04-30 00:21:00,
2013-04-29 17:31:00,52.0,43.0,30.26,North,358,21.0,24.0,71,0.00,,,0.06,,2013-04-30 00:31:00,
2013-04-29 17:41:00,52.0,43.0,30.26,North,358,21.0,24.0,71,0.00,,,0.06,,2013-04-30 00:41:00,
2013-04-29 17:51:00,52.0,44.0,30.26,North,5,20.0,25.0,74,0.00,,,0.06,,2013-04-30 00:51:00,
2013-04-29 18:01:00,51.0,43.0,30.25,North,4,18.0,25.0,75,0.00,,,0.06,,2013-04-30 01:01:00,
2013-04-29 18:11:00,51.0,43.0,30.25,North,4,18.0,25.0,75,0.00,,,0.06,,2013-04-30 01:11:00,
2013-04-29 18:21:00,51.0,43.0,30.25,North,4,18.0,24.0,74,0.00,,,0.06,,2013-04-30 01:21:00,
2013-04-29 18:32:00,51.0,43.0,30.25,North,356,16.0,22.0,74,0.00,,,0.06,,2013-04-30 01:32:00,
2013-04-29 18:41:00,51.0,43.0,30.25,North,356,16.0,22.0,74,0.00,,,0.06,,2013-04-30 01:41:00,
2013-04-29 18:51:00,51.0,42.0,30.25,NNE,16,19.0,22.0,72,0.00,,,0.06,,2013-04-30 01:51:00,
2013-04-29 19:01:00,51.0,43.0,30.25,North,354,15.0,23.0,74,0.00,,,0.06,,2013-04-30 02:01:00,
2013-04-29 19:11:00,51.0,43.0,30.25,North,354,15.0,23.0,74,0.00,,,0.06,,2013-04-30 02:11:00,
2013-04-29 19:21:00,50.0,42.0,30.25,North,8,17.0,21.0,74,0.00,,,0.06,,2013-04-30 02:21:00,
2013-04-29 19:31:00,50.0,43.0,30.25,North,6,17.0,23.0,76,0.00,,,0.06,,2013-04-30 02:31:00,
2013-04-29 19:41:00,50.0,43.0,30.25,North,6,17.0,23.0,76,0.00,,,0.06,,2013-04-30 02:41:00,
2013-04-29 19:51:00,49.0,42.0,30.25,North,11,17.0,23.0,76,0.00,,,0.06,,2013-04-30 02:51:00,
2013-04-29 20:01:00,49.0,42.0,30.24,North,11,17.0,23.0,77,0.00,,,0.06,,2013-04-30 03:01:00,
2013-04-29 20:11:00,49.0,42.0,30.24,North,11,17.0,23.0,77,0.00,,,0.06,,2013-04-30 03:11:00,
2013-04-29 20:21:00,48.0,41.0,30.24,North,359,17.0,23.0,77,0.00,,,0.06,,2013-04-30 03:21:00,
2013-04-29 20:33:00,48.0,41.0,30.25,North,4,17.0,23.0,77,0.00,,,0.06,,2013-04-30 03:33:00,
2013-04-29 20:42:00,48.0,41.0,30.25,North,4,17.0,23.0,77,0.00,,,0.06,,2013-04-30 03:42:00,
2013-04-29 20:52:00,48.0,41.0,30.25,NNE,17,10.0,18.0,77,0.00,,,0.06,,2013-04-30 03:52:00,
2013-04-29 21:02:00,47.0,41.0,30.25,North,3,16.0,21.0,78,0.00,,,0.06,,2013-04-30 04:02:00,
2013-04-29 21:12:00,47.0,41.0,30.25,North,3,16.0,21.0,78,0.00,,,0.06,,2013-04-30 04:12:00,
2013-04-29 21:22:00,46.0,39.0,30.25,NNE,26,9.0,16.0,76,0.00,,,0.06,,2013-04-30 04:22:00,
2013-04-29 21:32:00,46.0,39.0,30.25,NNE,25,7.0,18.0,76,0.00,,,0.06,,2013-04-30 04:32:00,
2013-04-29 21:42:00,46.0,39.0,30.25,NNE,25,7.0,18.0,76,0.00,,,0.06,,2013-04-30 04:42:00,
2013-04-29 21:52:00,45.0,38.0,30.26,NNE,25,7.0,15.0,77,0.00,,,0.06,,2013-04-30 04:52:00,
2013-04-29 22:02:00,45.0,38.0,30.26,NNE,28,5.0,10.0,77,0.00,,,0.06,,2013-04-30 05:02:00,
2013-04-29 22:11:00,45.0,38.0,30.26,NNE,28,5.0,10.0,77,0.00,,,0.06,,2013-04-30 05:11:00,
2013-04-29 22:21:00,44.0,37.0,30.26,NE,46,6.0,11.0,77,0.00,,,0.06,,2013-04-30 05:21:00,
2013-04-29 22:31:00,44.0,38.0,30.26,NNE,29,6.0,10.0,78,0.00,,,0.06,,2013-04-30 05:31:00,
2013-04-29 22:42:00,44.0,38.0,30.26,NNE,29,6.0,10.0,78,0.00,,,0.06,,2013-04-30 05:42:00,
2013-04-29 22:51:00,44.0,38.0,30.26,NNE,33,5.0,11.0,78,0.00,,,0.06,,2013-04-30 05:51:00,
2013-04-29 23:01:00,44.0,38.0,30.26,ENE,70,6.0,12.0,78,0.00,,,0.06,,2013-04-30 06:01:00,
2013-04-29 23:11:00,44.0,38.0,30.26,ENE,70,6.0,12.0,78,0.00,,,0.06,,2013-04-30 06:11:00,
2013-04-29 23:21:00,44.0,38.0,30.26,NE,43,5.0,13.0,78,0.00,,,0.06,,2013-04-30 06:21:00,
2013-04-29 23:31:00,44.0,38.0,30.26,NNE,16,6.0,11.0,78,0.00,,,0.06,,2013-04-30 06:31:00,
2013-04-29 23:41:00,44.0,38.0,30.26,NNE,16,6.0,11.0,78,0.00,,,0.06,,2013-04-30 06:41:00,
2013-04-29 23:52:00,45.0,38.0,30.26,NNE,27,6.0,12.0,77,0.00,,,0.06,,2013-04-30 06:52:00,